createdAt,value
2018-01-12T00:01:30.859Z,15.10
2018-01-12T00:03:58.311Z,11.20
2018-01-12T00:06:25.786Z,11.70
2018-01-12T00:08:53.281Z,12.60
2018-01-12T00:11:20.762Z,11.20
2018-01-12T00:13:48.214Z,11.33
2018-01-12T00:16:15.764Z,12.10
2018-01-12T00:18:43.234Z,12.97
2018-01-12T00:21:10.712Z,11.40
2018-01-12T00:23:38.154Z,10.87
2018-01-12T00:26:05.619Z,14.50
2018-01-12T00:28:33.085Z,13.43
2018-01-12T00:31:00.543Z,13.13
2018-01-12T00:33:28.026Z,12.60
2018-01-12T00:35:55.491Z,12.57
2018-01-12T00:38:22.950Z,12.23
2018-01-12T00:40:50.400Z,11.80
2018-01-12T00:43:17.886Z,11.60
2018-01-12T00:45:45.365Z,12.40
2018-01-12T00:48:12.832Z,11.37
2018-01-12T00:50:40.315Z,11.27
2018-01-12T00:53:07.772Z,11.10
2018-01-12T00:55:35.250Z,11.53
2018-01-12T00:58:02.696Z,10.00
2018-01-12T01:00:30.182Z,10.60
2018-01-12T01:02:57.644Z,12.27
2018-01-12T01:05:25.107Z,8.97
2018-01-12T01:07:52.555Z,8.10
2018-01-12T01:10:20.023Z,10.53
2018-01-12T01:12:47.486Z,10.63
2018-01-12T01:15:14.942Z,10.60
2018-01-12T01:17:42.419Z,10.80
2018-01-12T01:20:09.871Z,9.83
2018-01-12T01:22:37.335Z,12.40
2018-01-12T01:25:04.811Z,10.83
2018-01-12T01:27:32.282Z,11.63
2018-01-12T01:29:59.777Z,12.13
2018-01-12T01:32:27.239Z,12.70
2018-01-12T01:34:54.688Z,10.77
2018-01-12T01:37:22.212Z,11.53
2018-01-12T01:39:49.679Z,11.10
2018-01-12T01:42:17.128Z,9.83
2018-01-12T01:44:44.616Z,8.20
2018-01-12T01:47:12.064Z,10.47
2018-01-12T01:49:39.572Z,11.40
2018-01-12T01:52:07.044Z,10.63
2018-01-12T01:54:34.501Z,12.37
2018-01-12T01:57:01.983Z,11.43
2018-01-12T01:59:29.434Z,10.27
2018-01-12T02:01:56.907Z,9.63
2018-01-12T02:04:24.362Z,11.23
2018-01-12T02:06:51.818Z,11.60
2018-01-12T02:09:19.306Z,10.80
2018-01-12T02:11:46.755Z,9.63
2018-01-12T02:14:14.219Z,10.37
2018-01-12T02:16:41.669Z,11.50
2018-01-12T02:19:09.136Z,9.67
2018-01-12T02:21:36.591Z,11.33
2018-01-12T02:24:04.063Z,12.03
2018-01-12T02:26:31.603Z,8.70
2018-01-12T02:28:59.067Z,10.20
2018-01-12T02:31:26.529Z,10.70
2018-01-12T02:33:53.988Z,13.33
2018-01-12T02:36:21.460Z,14.40
2018-01-12T02:38:48.908Z,12.93
2018-01-12T02:41:16.379Z,13.60
2018-01-12T02:43:43.845Z,15.23
2018-01-12T02:46:11.314Z,14.20
2018-01-12T02:48:39.430Z,14.57
2018-01-12T02:51:06.909Z,13.90
2018-01-12T02:53:34.375Z,13.40
2018-01-12T02:56:01.899Z,13.70
2018-01-12T02:58:29.328Z,15.70
2018-01-12T03:00:56.810Z,15.30
2018-01-12T03:03:24.291Z,16.57
2018-01-12T03:05:51.766Z,16.93
2018-01-12T03:08:19.254Z,16.70
2018-01-12T03:10:46.715Z,15.37
2018-01-12T03:13:14.167Z,16.20
2018-01-12T03:15:41.627Z,14.27
2018-01-12T03:18:09.116Z,15.03
2018-01-12T03:20:36.572Z,16.30
2018-01-12T03:23:04.037Z,16.30
2018-01-12T03:25:31.487Z,16.87
2018-01-12T03:27:58.951Z,16.10
2018-01-12T03:30:26.400Z,12.97
2018-01-12T03:32:53.867Z,14.70
2018-01-12T03:35:21.334Z,17.33
2018-01-12T03:37:48.783Z,18.33
2018-01-12T03:40:16.250Z,18.43
2018-01-12T03:42:43.729Z,19.97
2018-01-12T03:45:12.086Z,20.43
2018-01-12T03:47:39.530Z,18.60
2018-01-12T03:50:06.998Z,17.00
2018-01-12T03:52:34.455Z,16.70
2018-01-12T03:55:01.940Z,19.80
2018-01-12T03:57:29.399Z,16.50
2018-01-12T03:59:56.867Z,19.07
2018-01-12T04:02:24.315Z,18.13
2018-01-12T04:04:51.779Z,17.27
2018-01-12T04:07:19.231Z,19.97
2018-01-12T04:09:46.699Z,19.40
2018-01-12T04:12:14.175Z,19.03
2018-01-12T04:14:41.632Z,19.63
2018-01-12T04:17:09.107Z,18.47
2018-01-12T04:19:36.583Z,18.50
2018-01-12T04:22:04.055Z,18.87
2018-01-12T04:24:31.522Z,18.90
2018-01-12T04:26:59.011Z,19.33
2018-01-12T04:29:26.464Z,17.97
2018-01-12T04:31:53.939Z,18.23
2018-01-12T04:34:21.402Z,19.17
2018-01-12T04:36:48.879Z,17.57
2018-01-12T04:39:16.328Z,19.70
2018-01-12T04:41:43.799Z,18.03
2018-01-12T04:44:11.267Z,14.93
2018-01-12T04:46:38.746Z,14.40
2018-01-12T04:49:06.207Z,15.70
2018-01-12T04:51:33.672Z,16.37
2018-01-12T04:54:01.118Z,18.03
2018-01-12T04:56:28.593Z,17.03
2018-01-12T04:58:56.052Z,17.27
2018-01-12T05:01:23.521Z,18.37
2018-01-12T05:03:50.977Z,17.67
2018-01-12T05:06:18.460Z,19.23
2018-01-12T05:08:45.948Z,21.10
2018-01-12T05:11:13.408Z,19.27
2018-01-12T05:13:40.893Z,17.17
2018-01-12T05:16:08.384Z,20.70
2018-01-12T05:18:35.860Z,17.07
2018-01-12T05:21:03.320Z,17.87
2018-01-12T05:23:30.796Z,17.63
2018-01-12T05:25:58.272Z,17.23
2018-01-12T05:28:25.726Z,16.13
2018-01-12T05:30:53.251Z,18.60
2018-01-12T05:33:20.727Z,20.00
2018-01-12T05:35:48.224Z,17.77
2018-01-12T05:38:15.700Z,19.07
2018-01-12T05:40:43.156Z,18.90
2018-01-12T05:43:10.631Z,16.00
2018-01-12T05:45:38.088Z,17.40
2018-01-12T05:48:05.571Z,19.07
2018-01-12T05:50:33.123Z,17.17
2018-01-12T05:53:00.603Z,17.33
2018-01-12T05:55:28.055Z,19.93
2018-01-12T05:57:55.518Z,18.80
2018-01-12T06:00:22.968Z,18.10
2018-01-12T06:03:02.326Z,18.10
2018-01-12T06:05:41.695Z,19.40
2018-01-12T06:08:09.168Z,18.60
2018-01-12T06:10:36.619Z,19.80
2018-01-12T06:13:04.092Z,16.63
2018-01-12T06:15:31.574Z,16.30
2018-01-12T06:17:59.066Z,15.43
2018-01-12T06:20:26.530Z,15.67
2018-01-12T06:22:53.983Z,18.57
2018-01-12T06:25:21.464Z,19.30
2018-01-12T06:27:48.916Z,20.10
2018-01-12T06:30:16.396Z,15.70
2018-01-12T06:32:43.852Z,16.23
2018-01-12T06:35:11.319Z,14.90
2018-01-12T06:37:38.797Z,17.17
2018-01-12T06:40:06.266Z,19.67
2018-01-12T06:42:33.714Z,18.57
2018-01-12T06:45:01.192Z,18.47
2018-01-12T06:47:28.655Z,18.50
2018-01-12T06:49:56.130Z,18.40
2018-01-12T06:52:23.622Z,15.80
2018-01-12T06:54:51.110Z,16.30
2018-01-12T06:57:18.572Z,14.83
2018-01-12T06:59:46.058Z,16.70
2018-01-12T07:02:13.513Z,17.00
2018-01-12T07:04:40.987Z,15.80
2018-01-12T07:07:08.455Z,16.53
2018-01-12T07:09:36.022Z,16.87
2018-01-12T07:12:03.491Z,14.63
2018-01-12T07:14:30.963Z,13.93
2018-01-12T07:16:58.440Z,16.27
2018-01-12T07:19:25.899Z,14.93
2018-01-12T07:22:05.255Z,14.43
2018-01-12T07:24:32.706Z,14.53
2018-01-12T07:27:00.171Z,15.80
2018-01-12T07:29:27.654Z,14.83
2018-01-12T07:31:55.131Z,14.90
2018-01-12T07:34:22.584Z,15.80
2018-01-12T07:36:50.051Z,13.30
2018-01-12T07:39:17.524Z,16.03
2018-01-12T07:41:44.998Z,13.47
2018-01-12T07:44:12.465Z,13.93
2018-01-12T07:46:39.923Z,12.80
2018-01-12T07:49:07.395Z,12.97
2018-01-12T07:51:34.851Z,14.63
2018-01-12T07:54:02.318Z,14.07
2018-01-12T07:56:29.763Z,12.27
2018-01-12T07:58:57.227Z,13.23
2018-01-12T08:01:30.319Z,13.80
2018-01-12T08:03:57.782Z,12.10
2018-01-12T08:06:25.250Z,11.87
2018-01-12T08:08:52.747Z,13.30
2018-01-12T08:11:20.199Z,11.47
2018-01-12T08:13:47.679Z,12.33
2018-01-12T08:16:15.137Z,12.70
2018-01-12T08:18:42.601Z,11.50
2018-01-12T08:21:10.049Z,12.83
2018-01-12T08:23:37.543Z,13.57
2018-01-12T08:26:05.020Z,15.20
2018-01-12T08:28:32.479Z,12.90
2018-01-12T08:30:59.940Z,13.57
2018-01-12T08:33:27.397Z,13.80
2018-01-12T08:35:54.870Z,11.50
2018-01-12T08:38:22.335Z,11.13
2018-01-12T08:40:49.784Z,11.43
2018-01-12T08:43:17.250Z,11.27
2018-01-12T08:45:44.701Z,12.10
2018-01-12T08:48:12.170Z,11.33
2018-01-12T08:50:39.615Z,11.93
2018-01-12T08:53:07.123Z,12.27
2018-01-12T08:55:34.589Z,11.23
2018-01-12T08:58:02.060Z,12.23
2018-01-12T09:00:29.515Z,11.33
2018-01-12T09:02:56.974Z,12.63
2018-01-12T09:05:24.416Z,12.00
2018-01-12T09:07:51.887Z,11.50
2018-01-12T09:10:19.346Z,11.93
2018-01-12T09:12:46.798Z,14.60
2018-01-12T09:15:22.159Z,13.37
2018-01-12T09:17:49.606Z,11.63
2018-01-12T09:20:18.038Z,13.97
2018-01-12T09:22:48.327Z,12.07
2018-01-12T09:25:25.625Z,12.13
2018-01-12T09:27:53.105Z,12.37
2018-01-12T09:30:20.561Z,12.13
2018-01-12T09:32:49.849Z,13.60
2018-01-12T09:35:17.318Z,12.50
2018-01-12T09:37:44.791Z,11.20
2018-01-12T09:40:27.833Z,11.27
2018-01-12T09:42:55.298Z,13.63
2018-01-12T09:45:22.788Z,13.57
2018-01-12T09:48:14.035Z,12.30
2018-01-12T09:50:41.514Z,14.10
2018-01-12T09:53:08.958Z,13.87
2018-01-12T09:55:36.453Z,11.83
2018-01-12T09:58:03.902Z,12.30
2018-01-12T10:00:40.369Z,13.40
2018-01-12T10:03:07.818Z,15.27
2018-01-12T10:05:35.290Z,15.03
2018-01-12T10:08:05.561Z,14.20
2018-01-12T10:10:33.061Z,15.07
2018-01-12T10:13:00.522Z,14.60
2018-01-12T10:15:27.968Z,15.93
2018-01-12T10:17:56.257Z,14.27
2018-01-12T10:20:36.271Z,13.90
2018-01-12T10:23:03.751Z,15.33
2018-01-12T10:25:31.200Z,15.10
2018-01-12T10:27:58.658Z,14.77
2018-01-12T10:30:58.206Z,13.40
2018-01-12T10:33:43.274Z,13.50
2018-01-12T10:39:22.230Z,12.90
2018-01-12T10:42:01.636Z,13.20
2018-01-12T10:44:29.095Z,13.10
2018-01-12T10:47:29.793Z,12.03
2018-01-12T10:52:57.106Z,15.80
2018-01-12T10:55:24.572Z,13.27
2018-01-12T10:57:52.047Z,14.57
2018-01-12T11:00:33.063Z,13.50
2018-01-12T11:03:00.526Z,13.37
2018-01-12T11:05:27.983Z,12.57
2018-01-12T11:07:55.454Z,14.37
2018-01-12T11:10:22.904Z,13.50
2018-01-12T11:12:50.375Z,11.87
2018-01-12T11:15:17.842Z,13.93
2018-01-12T11:17:45.290Z,12.77
2018-01-12T11:20:12.761Z,14.97
2018-01-12T11:22:40.230Z,14.20
2018-01-12T11:25:07.690Z,15.17
2018-01-12T11:27:35.156Z,14.70
2018-01-12T11:30:02.606Z,13.97
2018-01-12T11:32:30.069Z,14.60
2018-01-12T11:34:57.518Z,15.40
2018-01-12T11:37:24.978Z,14.23
2018-01-12T11:39:52.424Z,14.80
2018-01-12T11:42:19.883Z,14.07
2018-01-12T11:44:47.343Z,14.60
2018-01-12T11:47:14.808Z,12.70
2018-01-12T11:49:42.279Z,12.40
2018-01-12T11:52:09.774Z,14.77
2018-01-12T11:54:37.256Z,12.90
2018-01-12T11:57:04.759Z,15.10
2018-01-12T11:59:32.230Z,14.33
2018-01-12T12:01:59.686Z,13.83
2018-01-12T12:04:27.149Z,16.17
2018-01-12T12:06:54.593Z,13.10
2018-01-12T12:09:22.063Z,15.20
2018-01-12T12:11:49.518Z,14.50
2018-01-12T12:14:16.997Z,13.80
2018-01-12T12:16:44.454Z,12.40
2018-01-12T12:19:11.932Z,13.10
2018-01-12T12:21:39.396Z,14.43
2018-01-12T12:24:06.863Z,13.37
2018-01-12T12:26:34.327Z,13.60
2018-01-12T12:29:01.775Z,10.40
2018-01-12T12:31:29.253Z,12.00
2018-01-12T12:33:56.706Z,13.50
2018-01-12T12:36:24.184Z,12.07
2018-01-12T12:38:51.640Z,14.33
2018-01-12T12:41:19.102Z,13.80
2018-01-12T12:43:46.551Z,14.53
2018-01-12T12:46:14.020Z,15.87
2018-01-12T12:48:41.481Z,15.73
2018-01-12T12:51:08.955Z,16.13
2018-01-12T12:53:36.443Z,14.60
2018-01-12T12:56:03.891Z,13.80
2018-01-12T12:58:31.363Z,13.60
2018-01-12T13:00:58.822Z,14.63
2018-01-12T13:03:26.306Z,12.97
2018-01-12T13:05:53.772Z,14.03
2018-01-12T13:08:21.228Z,16.00
2018-01-12T13:10:48.697Z,16.07
2018-01-12T13:13:16.189Z,18.10
2018-01-12T13:15:43.651Z,17.50
2018-01-12T13:18:11.107Z,18.77
2018-01-12T13:20:38.567Z,17.20
2018-01-12T13:23:06.026Z,14.60
2018-01-12T13:25:33.487Z,14.90
2018-01-12T13:28:00.971Z,15.73
2018-01-12T13:30:28.434Z,14.53
2018-01-12T13:32:55.898Z,12.77
2018-01-12T13:35:23.349Z,14.17
2018-01-12T13:37:50.811Z,13.70
2018-01-12T13:40:18.278Z,12.60
2018-01-12T13:42:45.773Z,12.40
2018-01-12T13:45:13.283Z,13.63
2018-01-12T13:47:40.735Z,13.07
2018-01-12T13:50:08.203Z,13.60
2018-01-12T13:52:35.652Z,14.50
2018-01-12T13:55:03.119Z,14.23
2018-01-12T13:57:30.602Z,14.30
2018-01-12T13:59:58.068Z,15.37
2018-01-12T14:02:25.543Z,16.27
2018-01-12T14:04:53.003Z,15.20
2018-01-12T14:07:20.476Z,17.00
2018-01-12T14:09:47.931Z,15.07
2018-01-12T14:12:15.394Z,14.63
2018-01-12T14:14:42.855Z,14.83
2018-01-12T14:17:10.315Z,14.70
2018-01-12T14:19:37.787Z,16.10
2018-01-12T14:22:05.246Z,15.30
2018-01-12T14:24:32.710Z,15.47
2018-01-12T14:27:00.173Z,14.10
2018-01-12T14:29:27.647Z,17.50
2018-01-12T14:31:55.115Z,14.67
2018-01-12T14:34:22.567Z,15.50
2018-01-12T14:36:50.039Z,16.80
2018-01-12T14:39:17.502Z,17.53
2018-01-12T14:41:44.974Z,15.80
2018-01-12T14:44:12.455Z,14.80
2018-01-12T14:46:39.941Z,15.77
2018-01-12T14:49:07.417Z,16.93
2018-01-12T14:51:34.866Z,16.60
2018-01-12T14:54:02.336Z,14.83
2018-01-12T14:56:29.807Z,14.73
2018-01-12T14:58:57.289Z,14.03
2018-01-12T15:01:24.780Z,14.97
2018-01-12T15:03:52.243Z,15.30
2018-01-12T15:06:19.716Z,16.03
2018-01-12T15:08:47.165Z,15.50
2018-01-12T15:11:14.640Z,16.17
2018-01-12T15:13:42.090Z,15.23
2018-01-12T15:16:09.555Z,16.10
2018-01-12T15:18:37.016Z,14.00
2018-01-12T15:21:04.479Z,13.83
2018-01-12T15:23:31.936Z,15.63
2018-01-12T15:25:59.398Z,15.70
2018-01-12T15:28:26.854Z,15.73
2018-01-12T15:30:54.359Z,14.37
2018-01-12T15:33:21.824Z,17.10
2018-01-12T15:35:49.289Z,17.33
2018-01-12T15:38:16.762Z,15.57
2018-01-12T15:40:44.220Z,17.47
2018-01-12T15:43:11.698Z,17.20
2018-01-12T15:45:39.151Z,17.63
2018-01-12T15:48:06.612Z,19.07
2018-01-12T15:50:34.067Z,17.03
2018-01-12T15:53:01.535Z,16.10
2018-01-12T15:55:28.990Z,15.70
2018-01-12T15:57:56.465Z,15.67
2018-01-12T16:00:23.920Z,19.30
2018-01-12T16:02:51.382Z,19.87
2018-01-12T16:05:18.852Z,18.67
2018-01-12T16:07:46.371Z,18.80
2018-01-12T16:10:13.816Z,23.50
2018-01-12T16:12:41.282Z,23.70
2018-01-12T16:15:08.775Z,23.87
2018-01-12T16:17:36.220Z,23.73
2018-01-12T16:20:03.696Z,22.90
2018-01-12T16:22:31.164Z,19.93
2018-01-12T16:24:58.653Z,21.80
2018-01-12T16:27:26.221Z,22.03
2018-01-12T16:29:53.709Z,18.50
2018-01-12T16:32:21.187Z,21.10
2018-01-12T16:34:48.639Z,21.50
2018-01-12T16:37:16.122Z,20.40
2018-01-12T16:39:43.640Z,21.80
2018-01-12T16:42:11.111Z,19.77
2018-01-12T16:44:38.594Z,20.00
2018-01-12T16:47:06.055Z,21.80
2018-01-12T16:49:33.514Z,22.90
2018-01-12T16:52:00.962Z,22.20
2018-01-12T16:54:28.461Z,20.20
2018-01-12T16:56:55.917Z,21.63
2018-01-12T16:59:23.375Z,18.40
2018-01-12T17:01:50.860Z,20.53
2018-01-12T17:04:18.311Z,21.87
2018-01-12T17:06:45.802Z,23.63
2018-01-12T17:09:13.260Z,23.00
2018-01-12T17:11:40.733Z,20.33
2018-01-12T17:14:08.195Z,18.70
2018-01-12T17:16:35.750Z,20.07
2018-01-12T17:19:03.216Z,20.10
2018-01-12T17:21:30.665Z,20.80
2018-01-12T17:23:58.150Z,19.67
2018-01-12T17:26:25.620Z,19.40
2018-01-12T17:28:53.183Z,19.57
2018-01-12T17:31:20.676Z,20.90
2018-01-12T17:33:48.160Z,23.57
2018-01-12T17:36:15.660Z,20.90
2018-01-12T17:38:43.138Z,19.47
2018-01-12T17:41:10.591Z,20.10
2018-01-12T17:43:38.054Z,18.50
2018-01-12T17:46:05.501Z,19.20
2018-01-12T17:48:32.992Z,20.77
2018-01-12T17:51:00.436Z,21.80
2018-01-12T17:53:27.908Z,21.50
2018-01-12T17:55:55.370Z,20.47
2018-01-12T17:58:22.835Z,21.20
2018-01-12T18:00:50.295Z,18.80
2018-01-12T18:03:17.815Z,17.63
2018-01-12T18:05:45.227Z,19.27
2018-01-12T18:08:12.704Z,19.67
2018-01-12T18:10:40.164Z,19.70
2018-01-12T18:13:07.642Z,20.43
2018-01-12T18:15:35.121Z,21.37
2018-01-12T18:18:02.574Z,21.30
2018-01-12T18:20:30.051Z,19.60
2018-01-12T18:22:57.515Z,19.87
2018-01-12T18:25:24.967Z,19.30
2018-01-12T18:27:52.431Z,19.50
2018-01-12T18:30:19.881Z,20.13
2018-01-12T18:32:47.370Z,19.13
2018-01-12T18:35:14.834Z,17.47
2018-01-12T18:37:42.298Z,19.00
2018-01-12T18:40:09.754Z,18.77
2018-01-12T18:42:37.200Z,19.40
2018-01-12T18:45:04.967Z,19.43
2018-01-12T18:47:32.465Z,18.00
2018-01-12T18:49:59.915Z,19.77
2018-01-12T18:52:27.382Z,18.40
2018-01-12T18:54:54.850Z,18.10
2018-01-12T18:57:22.314Z,21.30
2018-01-12T18:59:49.784Z,19.60
2018-01-12T19:02:17.239Z,18.63
2018-01-12T19:04:44.731Z,19.60
2018-01-12T19:07:16.875Z,18.30
2018-01-12T19:09:44.342Z,18.03
2018-01-12T19:12:11.798Z,18.83
2018-01-12T19:14:39.271Z,18.50
2018-01-12T19:17:06.738Z,21.23
2018-01-12T19:19:34.199Z,22.17
2018-01-12T19:22:01.668Z,18.20
2018-01-12T19:24:29.124Z,18.20
2018-01-12T19:26:56.605Z,18.40
2018-01-12T19:29:24.071Z,16.90
2018-01-12T19:31:51.538Z,17.90
2018-01-12T19:34:19.015Z,15.30
2018-01-12T19:36:46.474Z,16.77
2018-01-12T19:39:13.951Z,17.50
2018-01-12T19:41:41.407Z,18.27
2018-01-12T19:44:08.895Z,17.50
2018-01-12T19:46:36.354Z,18.07
2018-01-12T19:49:03.811Z,17.40
2018-01-12T19:51:31.281Z,19.23
2018-01-12T19:53:58.743Z,17.03
2018-01-12T19:56:26.206Z,19.03
2018-01-12T19:58:53.679Z,20.00
2018-01-12T20:01:21.139Z,20.70
2018-01-12T20:03:48.660Z,19.80
2018-01-12T20:06:16.106Z,19.77
2018-01-12T20:08:43.632Z,20.07
2018-01-12T20:11:11.086Z,19.60
2018-01-12T20:13:38.546Z,19.57
2018-01-12T20:16:06.011Z,19.03
2018-01-12T20:18:33.471Z,17.70
2018-01-12T20:21:00.948Z,19.30
2018-01-12T20:23:28.442Z,17.67
2018-01-12T20:25:55.892Z,16.70
2018-01-12T20:28:23.366Z,17.13
2018-01-12T20:30:50.839Z,19.20
2018-01-12T20:33:18.349Z,18.37
2018-01-12T20:35:45.777Z,16.43
2018-01-12T20:38:13.231Z,17.60
2018-01-12T20:40:40.690Z,18.60
2018-01-12T20:43:08.157Z,19.17
2018-01-12T20:45:35.615Z,16.70
2018-01-12T20:48:03.098Z,16.83
2018-01-12T20:50:30.559Z,17.60
2018-01-12T20:52:58.047Z,16.10
2018-01-12T20:55:25.590Z,14.10
2018-01-12T20:57:53.058Z,14.70
2018-01-12T21:00:20.507Z,15.70
2018-01-12T21:02:47.977Z,17.70
2018-01-12T21:05:15.449Z,17.37
2018-01-12T21:07:42.916Z,17.27
2018-01-12T21:10:10.389Z,16.40
2018-01-12T21:12:37.839Z,15.20
2018-01-12T21:15:05.308Z,17.90
2018-01-12T21:17:32.760Z,18.93
2018-01-12T21:20:00.237Z,19.17
2018-01-12T21:22:27.692Z,17.40
2018-01-12T21:24:55.162Z,16.83
2018-01-12T21:27:22.631Z,16.70
2018-01-12T21:29:50.092Z,16.30
2018-01-12T21:32:17.542Z,17.23
2018-01-12T21:34:45.026Z,19.90
2018-01-12T21:37:12.479Z,18.83
2018-01-12T21:39:39.972Z,19.00
2018-01-12T21:42:07.426Z,17.63
2018-01-12T21:44:34.897Z,16.53
2018-01-12T21:47:02.359Z,15.30
2018-01-12T21:49:30.577Z,18.20
2018-01-12T21:51:58.032Z,17.63
2018-01-12T21:54:25.517Z,17.50
2018-01-12T21:56:52.995Z,19.13
2018-01-12T21:59:20.444Z,17.67
2018-01-12T22:01:47.917Z,16.60
2018-01-12T22:04:15.390Z,17.83
2018-01-12T22:06:42.854Z,18.50
2018-01-12T22:09:10.303Z,18.20
2018-01-12T22:11:37.763Z,19.43
2018-01-12T22:14:05.218Z,17.93
2018-01-12T22:16:32.684Z,19.93
2018-01-12T22:19:00.150Z,16.90
2018-01-12T22:21:27.612Z,19.50
2018-01-12T22:23:55.074Z,17.90
2018-01-12T22:26:22.527Z,18.33
2018-01-12T22:28:49.989Z,18.83
2018-01-12T22:31:17.447Z,18.60
2018-01-12T22:33:44.924Z,17.40
2018-01-12T22:36:12.395Z,18.17
2018-01-12T22:38:39.855Z,18.80
2018-01-12T22:41:07.353Z,17.10
2018-01-12T22:43:34.802Z,17.10
2018-01-12T22:46:02.265Z,18.60
2018-01-12T22:48:29.734Z,18.87
2018-01-12T22:50:57.190Z,19.07
2018-01-12T22:53:24.740Z,20.10
2018-01-12T22:55:52.212Z,19.10
2018-01-12T22:58:19.704Z,18.67
2018-01-12T23:00:47.172Z,20.20
2018-01-12T23:03:14.654Z,17.80
2018-01-12T23:05:42.110Z,19.83
2018-01-12T23:08:09.576Z,19.30
2018-01-12T23:10:37.026Z,18.90
2018-01-12T23:13:04.496Z,18.67
2018-01-12T23:15:31.956Z,17.50
2018-01-12T23:17:59.419Z,19.13
2018-01-12T23:20:26.908Z,17.80
2018-01-12T23:22:54.377Z,20.37
2018-01-12T23:25:21.839Z,18.13
2018-01-12T23:27:49.316Z,18.77
2018-01-12T23:30:16.763Z,18.40
2018-01-12T23:32:44.210Z,17.90
2018-01-12T23:35:11.682Z,17.37
2018-01-12T23:37:39.158Z,19.40
2018-01-12T23:40:06.637Z,19.23
2018-01-12T23:42:34.090Z,17.63
2018-01-12T23:45:01.556Z,19.60
2018-01-12T23:47:29.026Z,18.90
2018-01-12T23:49:56.487Z,21.50
2018-01-12T23:52:23.967Z,18.50
2018-01-12T23:54:51.445Z,18.00
2018-01-12T23:57:18.921Z,16.83
2018-01-12T23:59:46.378Z,19.93
